createdAt,value
2022-10-26T00:02:08.970Z,13.66
2022-10-26T00:04:36.064Z,13.66
2022-10-26T00:07:03.319Z,13.63
2022-10-26T00:09:30.256Z,13.58
2022-10-26T00:11:57.342Z,13.54
2022-10-26T00:14:24.454Z,13.48
2022-10-26T00:16:51.440Z,13.48
2022-10-26T00:19:18.850Z,13.49
2022-10-26T00:21:45.833Z,13.46
2022-10-26T00:24:12.963Z,13.43
2022-10-26T00:26:40.226Z,13.39
2022-10-26T00:29:07.450Z,13.36
2022-10-26T00:31:34.503Z,13.36
2022-10-26T00:34:01.551Z,13.40
2022-10-26T00:36:29.003Z,13.42
2022-10-26T00:38:56.866Z,13.42
2022-10-26T00:41:26.003Z,13.42
2022-10-26T00:43:53.627Z,13.42
2022-10-26T00:46:30.808Z,13.46
2022-10-26T00:49:01.729Z,13.51
2022-10-26T00:51:50.690Z,13.52
2022-10-26T00:54:21.548Z,13.51
2022-10-26T00:56:50.047Z,13.49
2022-10-26T00:59:17.378Z,13.47
2022-10-26T01:01:45.103Z,13.51
2022-10-26T01:04:12.802Z,13.55
2022-10-26T01:06:39.870Z,13.55
2022-10-26T01:09:07.000Z,13.54
2022-10-26T01:11:33.951Z,13.51
2022-10-26T01:14:01.708Z,13.49
2022-10-26T01:16:42.787Z,13.52
2022-10-26T01:19:32.783Z,13.55
2022-10-26T01:22:06.083Z,13.54
2022-10-26T01:24:44.578Z,13.51
2022-10-26T01:27:37.330Z,13.47
2022-10-26T01:30:15.540Z,13.45
2022-10-26T01:32:54.788Z,13.48
2022-10-26T01:35:34.824Z,13.50
2022-10-26T01:38:10.575Z,13.50
2022-10-26T01:40:42.027Z,13.48
2022-10-26T01:43:09.890Z,13.44
2022-10-26T01:45:38.276Z,13.42
2022-10-26T01:48:05.848Z,13.45
2022-10-26T01:50:32.875Z,13.48
2022-10-26T01:52:59.949Z,13.51
2022-10-26T01:55:39.265Z,13.51
2022-10-26T01:58:30.273Z,13.49
2022-10-26T02:01:36.503Z,13.48
2022-10-26T02:04:11.950Z,13.52
2022-10-26T02:06:45.069Z,13.52
2022-10-26T02:09:15.183Z,13.50
2022-10-26T02:11:43.906Z,13.46
2022-10-26T02:14:23.207Z,13.41
2022-10-26T02:16:54.557Z,13.36
2022-10-26T02:19:50.992Z,13.36
2022-10-26T02:22:48.831Z,13.38
2022-10-26T02:25:29.974Z,13.34
2022-10-26T02:28:01.938Z,13.28
2022-10-26T02:30:29.184Z,13.21
2022-10-26T02:32:57.020Z,13.17
2022-10-26T02:35:27.854Z,13.20
2022-10-26T02:37:54.898Z,13.23
2022-10-26T02:40:24.780Z,13.23
2022-10-26T02:42:52.738Z,13.21
2022-10-26T02:45:23.197Z,13.18
2022-10-26T02:47:51.065Z,13.13
2022-10-26T02:50:20.075Z,13.14
2022-10-26T02:52:55.008Z,13.16
2022-10-26T02:55:24.507Z,13.16
2022-10-26T02:57:54.522Z,13.14
2022-10-26T03:00:21.514Z,13.10
2022-10-26T03:02:53.583Z,13.09
2022-10-26T03:05:28.672Z,13.12
2022-10-26T03:07:56.230Z,13.16
2022-10-26T03:10:23.195Z,13.19
2022-10-26T03:12:50.585Z,13.18
2022-10-26T03:15:18.021Z,13.16
2022-10-26T03:17:45.048Z,13.14
2022-10-26T03:20:11.990Z,13.17
2022-10-26T03:22:39.127Z,13.21
2022-10-26T03:27:39.330Z,13.25
2022-10-26T03:30:07.207Z,13.22
2022-10-26T03:32:34.281Z,13.18
2022-10-26T03:35:01.635Z,13.20
2022-10-26T03:37:28.590Z,13.23
2022-10-26T03:39:55.600Z,13.23
2022-10-26T03:42:22.685Z,13.20
2022-10-26T03:44:49.620Z,13.17
2022-10-26T03:47:16.665Z,13.12
2022-10-26T03:49:43.913Z,13.13
2022-10-26T03:52:10.960Z,13.15
2022-10-26T03:54:37.905Z,13.12
2022-10-26T03:57:04.849Z,13.07
2022-10-26T03:59:31.698Z,12.99
2022-10-26T04:01:58.723Z,12.93
2022-10-26T04:04:25.982Z,12.92
2022-10-26T04:06:53.243Z,12.91
2022-10-26T04:09:20.317Z,12.88
2022-10-26T04:11:47.338Z,12.84
2022-10-26T04:14:14.814Z,12.79
2022-10-26T04:16:41.739Z,12.74
2022-10-26T04:19:08.786Z,12.75
2022-10-26T04:21:35.836Z,12.78
2022-10-26T04:24:02.788Z,12.77
2022-10-26T04:26:29.927Z,12.73
2022-10-26T04:28:56.990Z,12.70
2022-10-26T04:31:24.020Z,12.71
2022-10-26T04:33:50.975Z,12.75
2022-10-26T04:36:18.014Z,12.77
2022-10-26T04:38:44.966Z,12.76
2022-10-26T04:41:14.501Z,12.75
2022-10-26T04:43:41.718Z,12.80
2022-10-26T04:46:10.365Z,12.88
2022-10-26T04:48:38.370Z,12.91
2022-10-26T04:51:05.376Z,12.90
2022-10-26T04:53:32.463Z,12.88
2022-10-26T04:56:00.331Z,12.90
2022-10-26T04:58:28.747Z,12.94
2022-10-26T05:00:55.825Z,12.94
2022-10-26T05:03:30.339Z,12.92
2022-10-26T05:06:00.889Z,12.87
2022-10-26T05:08:32.872Z,12.81
2022-10-26T05:14:48.129Z,12.81
2022-10-26T05:17:15.713Z,12.77
2022-10-26T05:19:42.754Z,12.70
2022-10-26T05:22:10.516Z,12.62
2022-10-26T05:24:37.564Z,12.59
2022-10-26T05:27:04.508Z,12.58
2022-10-26T05:29:31.489Z,12.52
2022-10-26T05:31:58.511Z,12.44
2022-10-26T05:34:25.484Z,12.35
2022-10-26T05:36:53.823Z,12.28
2022-10-26T05:39:22.222Z,12.27
2022-10-26T05:41:49.251Z,12.29
2022-10-26T05:44:16.303Z,12.28
2022-10-26T05:46:45.777Z,12.27
2022-10-26T05:49:12.858Z,12.26
2022-10-26T05:51:40.138Z,12.34
2022-10-26T05:54:10.304Z,12.44
2022-10-26T05:56:40.231Z,12.53
2022-10-26T05:59:15.233Z,12.60
2022-10-26T06:02:01.802Z,12.68
2022-10-26T06:04:44.502Z,12.81
2022-10-26T06:07:13.279Z,12.94
2022-10-26T06:09:40.880Z,13.01
2022-10-26T06:12:09.029Z,13.09
2022-10-26T06:14:36.601Z,13.19
2022-10-26T06:17:09.759Z,13.37
2022-10-26T06:19:41.004Z,13.61
2022-10-26T06:22:41.945Z,13.82
2022-10-26T06:25:36.744Z,14.06
2022-10-26T06:31:03.916Z,14.38
2022-10-26T06:33:31.312Z,14.49
2022-10-26T06:36:04.869Z,14.58
2022-10-26T06:38:31.814Z,14.61
2022-10-26T06:40:59.198Z,14.60
2022-10-26T06:43:27.613Z,14.59
2022-10-26T06:46:19.784Z,14.62
2022-10-26T06:49:11.508Z,14.66
2022-10-26T06:51:46.648Z,14.82
2022-10-26T06:54:16.152Z,15.01
2022-10-26T06:56:43.197Z,15.18
2022-10-26T06:59:15.570Z,15.33
2022-10-26T07:01:42.838Z,15.53
2022-10-26T07:04:10.073Z,15.73
2022-10-26T07:06:39.252Z,15.94
2022-10-26T07:09:09.389Z,16.13
2022-10-26T07:11:36.436Z,16.29
2022-10-26T07:14:03.484Z,16.36
2022-10-26T07:16:30.641Z,16.37
2022-10-26T07:18:57.683Z,16.33
2022-10-26T07:21:24.625Z,16.28
2022-10-26T07:23:52.835Z,16.22
2022-10-26T07:26:20.052Z,16.15
2022-10-26T07:28:49.821Z,16.05
2022-10-26T07:31:16.922Z,15.99
2022-10-26T07:33:45.616Z,15.96
2022-10-26T07:36:12.851Z,15.97
2022-10-26T07:38:40.104Z,16.15
2022-10-26T07:41:07.312Z,16.43
2022-10-26T07:43:53.250Z,16.82
2022-10-26T07:46:20.294Z,17.18
2022-10-26T07:48:47.238Z,17.51
2022-10-26T07:51:14.286Z,17.86
2022-10-26T07:53:41.843Z,18.23
2022-10-26T07:56:08.901Z,18.58
2022-10-26T07:58:36.562Z,18.92
2022-10-26T08:01:13.315Z,19.22
2022-10-26T08:03:40.803Z,19.51
2022-10-26T08:06:09.668Z,19.78
2022-10-26T08:08:37.025Z,20.02
2022-10-26T08:11:04.003Z,20.25
2022-10-26T08:13:33.743Z,20.48
2022-10-26T08:16:03.327Z,20.73
2022-10-26T08:18:30.639Z,20.96
2022-10-26T08:21:10.687Z,21.18
2022-10-26T08:23:40.096Z,21.40
2022-10-26T08:26:07.203Z,21.63
2022-10-26T08:28:37.683Z,21.80
2022-10-26T08:31:04.819Z,21.97
2022-10-26T08:33:31.808Z,22.20
2022-10-26T08:36:00.248Z,22.42
2022-10-26T08:38:27.844Z,22.60
2022-10-26T08:40:54.859Z,22.74
2022-10-26T08:43:39.603Z,22.89
2022-10-26T08:46:12.089Z,23.07
2022-10-26T08:48:44.682Z,23.21
2022-10-26T08:51:21.342Z,23.34
2022-10-26T08:53:52.967Z,23.43
2022-10-26T08:56:27.339Z,23.54
2022-10-26T08:58:58.458Z,23.75
2022-10-26T09:01:25.619Z,24.01
2022-10-26T09:03:52.865Z,24.22
2022-10-26T09:06:21.413Z,24.38
2022-10-26T09:09:18.420Z,24.53
2022-10-26T09:12:18.103Z,24.69
2022-10-26T09:15:04.093Z,24.81
2022-10-26T09:17:48.477Z,24.89
2022-10-26T09:20:15.598Z,24.89
2022-10-26T09:23:06.200Z,24.75
2022-10-26T09:25:43.942Z,24.47
2022-10-26T09:28:16.674Z,24.19
2022-10-26T09:30:47.565Z,23.91
2022-10-26T09:33:17.745Z,23.68
2022-10-26T09:36:04.338Z,23.45
2022-10-26T09:38:37.325Z,23.21
2022-10-26T09:41:33.245Z,23.00
2022-10-26T09:44:21.899Z,22.84
2022-10-26T09:47:00.313Z,22.69
2022-10-26T09:49:33.611Z,22.59
2022-10-26T09:52:03.385Z,22.52
2022-10-26T09:54:30.568Z,22.46
2022-10-26T09:56:59.164Z,22.42
2022-10-26T09:59:26.607Z,22.38
2022-10-26T10:01:53.837Z,22.28
2022-10-26T10:04:26.257Z,22.18
2022-10-26T10:07:14.403Z,22.08
2022-10-26T10:09:41.422Z,22.02
2022-10-26T10:12:20.759Z,21.96
2022-10-26T10:14:57.736Z,21.95
2022-10-26T10:17:27.754Z,21.98
2022-10-26T10:19:54.906Z,22.00
2022-10-26T10:22:25.440Z,21.99
2022-10-26T10:24:58.112Z,21.97
2022-10-26T10:27:25.670Z,21.94
2022-10-26T10:29:59.701Z,21.92
2022-10-26T10:32:35.539Z,21.92
2022-10-26T10:35:23.940Z,21.92
2022-10-26T10:37:51.133Z,21.92
2022-10-26T10:40:22.484Z,21.90
2022-10-26T10:42:50.808Z,21.88
2022-10-26T10:45:23.031Z,21.86
2022-10-26T10:48:12.612Z,21.82
2022-10-26T10:50:55.529Z,21.79
2022-10-26T10:53:26.680Z,21.77
2022-10-26T10:56:10.732Z,21.75
2022-10-26T10:58:48.851Z,21.72
2022-10-26T11:01:23.259Z,21.74
2022-10-26T11:04:05.989Z,21.78
2022-10-26T11:06:33.619Z,21.79
2022-10-26T11:09:03.428Z,21.75
2022-10-26T11:11:45.554Z,21.69
2022-10-26T11:14:33.567Z,21.60
2022-10-26T11:17:30.614Z,21.46
2022-10-26T11:20:16.095Z,21.31
2022-10-26T11:23:10.386Z,21.13
2022-10-26T11:25:42.349Z,20.95
2022-10-26T11:28:12.466Z,20.79
2022-10-26T11:30:44.310Z,20.64
2022-10-26T11:33:22.020Z,20.51
2022-10-26T11:35:58.903Z,20.39
2022-10-26T11:38:45.983Z,20.31
2022-10-26T11:41:49.856Z,20.33
2022-10-26T11:44:28.951Z,20.39
2022-10-26T11:46:57.672Z,20.39
2022-10-26T11:49:45.575Z,20.35
2022-10-26T11:52:20.257Z,20.29
2022-10-26T11:57:26.481Z,20.37
2022-10-26T11:59:55.370Z,20.34
2022-10-26T12:02:23.857Z,20.31
2022-10-26T12:05:19.586Z,20.26
2022-10-26T12:08:08.587Z,20.19
2022-10-26T12:10:38.449Z,20.16
2022-10-26T12:13:14.525Z,20.14
2022-10-26T12:16:03.523Z,20.08
2022-10-26T12:18:55.909Z,19.97
2022-10-26T12:21:29.038Z,19.91
2022-10-26T12:24:00.139Z,19.95
2022-10-26T12:26:27.187Z,20.10
2022-10-26T12:29:23.007Z,20.29
2022-10-26T12:31:50.157Z,20.53
2022-10-26T12:34:30.018Z,20.74
2022-10-26T12:36:56.995Z,20.96
2022-10-26T12:39:33.829Z,21.13
2022-10-26T12:42:09.916Z,21.27
2022-10-26T12:44:42.872Z,21.32
2022-10-26T12:47:10.440Z,21.25
2022-10-26T12:50:09.577Z,21.12
2022-10-26T12:52:49.064Z,20.96
2022-10-26T12:55:38.541Z,20.83
2022-10-26T12:58:24.532Z,20.65
2022-10-26T13:01:16.648Z,20.42
2022-10-26T13:04:07.062Z,20.16
2022-10-26T13:07:13.251Z,19.86
2022-10-26T13:09:40.280Z,19.62
2022-10-26T13:12:07.279Z,19.42
2022-10-26T13:14:43.842Z,19.23
2022-10-26T13:17:23.990Z,19.05
2022-10-26T13:19:51.092Z,18.91
2022-10-26T13:22:21.420Z,18.80
2022-10-26T13:24:51.666Z,18.74
2022-10-26T13:27:18.791Z,18.70
2022-10-26T13:30:06.065Z,18.69
2022-10-26T13:32:38.102Z,18.66
2022-10-26T13:35:05.427Z,18.61
2022-10-26T13:37:33.673Z,18.54
2022-10-26T13:40:01.161Z,18.48
2022-10-26T13:45:07.046Z,18.39
2022-10-26T13:47:53.049Z,18.36
2022-10-26T13:50:24.737Z,18.34
2022-10-26T13:53:07.393Z,18.31
2022-10-26T13:55:50.826Z,18.25
2022-10-26T13:58:23.402Z,18.16
2022-10-26T14:01:12.033Z,18.07
2022-10-26T14:03:39.511Z,17.96
2022-10-26T14:06:28.404Z,17.86
2022-10-26T14:09:02.619Z,17.74
2022-10-26T14:12:16.123Z,17.65
2022-10-26T14:14:43.988Z,17.52
2022-10-26T14:17:24.244Z,17.42
2022-10-26T14:19:51.438Z,17.32
2022-10-26T14:22:23.487Z,17.25
2022-10-26T14:27:28.477Z,17.05
2022-10-26T14:30:20.995Z,16.94
2022-10-26T14:32:42.783Z,16.84
2022-10-26T14:35:14.133Z,16.73
2022-10-26T14:37:57.577Z,16.65
2022-10-26T14:40:27.318Z,16.55
2022-10-26T14:42:56.077Z,16.46
2022-10-26T14:45:47.736Z,16.36
2022-10-26T14:48:25.782Z,16.25
2022-10-26T14:51:17.637Z,16.15
2022-10-26T14:53:52.875Z,16.04
2022-10-26T14:56:25.320Z,15.95
2022-10-26T14:58:52.375Z,15.92
2022-10-26T15:01:22.708Z,15.93
2022-10-26T15:03:53.710Z,15.89
2022-10-26T15:06:30.091Z,15.82
2022-10-26T15:13:04.561Z,15.58
2022-10-26T15:18:30.472Z,15.34
2022-10-26T15:20:57.619Z,15.24
2022-10-26T15:23:24.939Z,15.15
2022-10-26T15:25:59.884Z,15.03
2022-10-26T15:28:39.105Z,14.91
2022-10-26T15:31:06.669Z,14.87
2022-10-26T15:33:34.226Z,14.85
2022-10-26T15:36:26.590Z,14.80
2022-10-26T15:38:54.121Z,14.74
2022-10-26T15:41:25.979Z,14.70
2022-10-26T15:43:56.918Z,14.67
2022-10-26T15:47:08.916Z,14.64
2022-10-26T15:49:36.219Z,14.60
2022-10-26T15:54:30.320Z,14.65
2022-10-26T15:56:57.537Z,14.62
2022-10-26T15:59:24.604Z,14.54
2022-10-26T16:01:53.124Z,14.45
2022-10-26T16:04:20.341Z,14.35
2022-10-26T16:06:47.694Z,14.25
2022-10-26T16:09:18.478Z,14.20
2022-10-26T16:11:45.881Z,14.17
2022-10-26T16:14:13.259Z,14.11
2022-10-26T16:16:41.646Z,14.05
2022-10-26T16:21:56.979Z,13.90
2022-10-26T16:24:24.053Z,13.83
2022-10-26T16:26:50.999Z,13.74
2022-10-26T16:29:18.147Z,13.70
2022-10-26T16:31:46.151Z,13.72
2022-10-26T16:34:13.472Z,13.72
2022-10-26T16:36:40.742Z,13.68
2022-10-26T16:39:07.889Z,13.63
2022-10-26T16:41:35.267Z,13.59
2022-10-26T16:44:02.683Z,13.54
2022-10-26T16:46:29.730Z,13.51
2022-10-26T16:48:56.811Z,13.52
2022-10-26T16:51:26.557Z,13.58
2022-10-26T16:53:55.914Z,13.60
2022-10-26T16:56:24.886Z,13.60
2022-10-26T16:58:51.933Z,13.60
2022-10-26T17:01:22.764Z,13.59
2022-10-26T17:03:50.831Z,13.59
2022-10-26T17:06:20.443Z,13.64
2022-10-26T17:08:47.706Z,13.69
2022-10-26T17:11:16.923Z,13.72
2022-10-26T17:13:46.910Z,13.72
2022-10-26T17:16:16.222Z,13.72
2022-10-26T17:18:43.669Z,13.70
2022-10-26T17:21:12.046Z,13.67
2022-10-26T17:23:41.483Z,13.65
2022-10-26T17:26:12.498Z,13.66
2022-10-26T17:28:42.199Z,13.70
2022-10-26T17:31:13.145Z,13.70
2022-10-26T17:33:42.229Z,13.69
2022-10-26T17:36:10.606Z,13.67
2022-10-26T17:38:42.776Z,13.65
2022-10-26T17:41:11.364Z,13.64
2022-10-26T17:43:39.330Z,13.66
2022-10-26T17:46:08.376Z,13.70
2022-10-26T17:48:35.374Z,13.71
2022-10-26T17:51:03.283Z,13.70
2022-10-26T17:53:30.517Z,13.68
2022-10-26T17:56:04.804Z,13.65
2022-10-26T17:58:35.121Z,13.62
2022-10-26T18:01:10.219Z,13.63
2022-10-26T18:03:38.335Z,13.68
2022-10-26T18:06:07.812Z,13.71
2022-10-26T18:08:35.792Z,13.70
2022-10-26T18:11:02.859Z,13.69
2022-10-26T18:13:32.196Z,13.66
2022-10-26T18:16:06.277Z,13.63
2022-10-26T18:18:33.439Z,13.64
2022-10-26T18:21:05.103Z,13.66
2022-10-26T18:23:32.323Z,13.65
2022-10-26T18:26:16.004Z,13.60
2022-10-26T18:28:43.316Z,13.53
2022-10-26T18:31:13.278Z,13.47
2022-10-26T18:33:40.246Z,13.41
2022-10-26T18:36:15.008Z,13.41
2022-10-26T18:38:42.054Z,13.44
2022-10-26T18:41:10.966Z,13.41
2022-10-26T18:43:51.916Z,13.35
2022-10-26T18:46:24.340Z,13.27
2022-10-26T18:48:57.233Z,13.21
2022-10-26T18:51:28.957Z,13.21
2022-10-26T18:53:56.343Z,13.24
2022-10-26T18:56:24.475Z,13.22
2022-10-26T18:58:55.703Z,13.16
2022-10-26T19:01:27.732Z,13.08
2022-10-26T19:03:59.319Z,12.98
2022-10-26T19:06:28.220Z,12.86
2022-10-26T19:08:55.565Z,12.74
2022-10-26T19:11:23.454Z,12.68
2022-10-26T19:13:51.610Z,12.64
2022-10-26T19:16:40.253Z,12.57
2022-10-26T19:19:06.493Z,12.46
2022-10-26T19:21:33.536Z,12.36
2022-10-26T19:24:01.493Z,12.27
2022-10-26T19:26:33.404Z,12.24
2022-10-26T19:29:04.343Z,12.25
2022-10-26T19:31:34.218Z,12.22
2022-10-26T19:34:02.080Z,12.15
2022-10-26T19:36:29.540Z,12.08
2022-10-26T19:38:56.526Z,11.99
2022-10-26T19:41:24.146Z,11.90
2022-10-26T19:43:51.339Z,11.88
2022-10-26T19:46:21.321Z,11.88
2022-10-26T19:48:51.837Z,11.85
2022-10-26T19:51:18.987Z,11.79
2022-10-26T19:53:46.033Z,11.72
2022-10-26T19:56:13.596Z,11.64
2022-10-26T19:58:41.458Z,11.57
2022-10-26T20:01:08.972Z,11.55
2022-10-26T20:03:36.066Z,11.54
2022-10-26T20:06:08.633Z,11.49
2022-10-26T20:08:36.405Z,11.40
2022-10-26T20:11:03.766Z,11.33
2022-10-26T20:13:30.910Z,11.24
2022-10-26T20:15:58.057Z,11.16
2022-10-26T20:18:27.765Z,11.13
2022-10-26T20:20:54.716Z,11.12
2022-10-26T20:23:21.967Z,11.09
2022-10-26T20:25:50.302Z,11.05
2022-10-26T20:28:18.109Z,10.97
2022-10-26T20:30:45.787Z,10.88
2022-10-26T20:33:13.123Z,10.79
2022-10-26T20:35:40.295Z,10.77
2022-10-26T20:38:08.009Z,10.76
2022-10-26T20:40:35.804Z,10.71
2022-10-26T20:43:03.561Z,10.66
2022-10-26T20:45:33.786Z,10.61
2022-10-26T20:48:01.574Z,10.54
2022-10-26T20:50:29.928Z,10.47
2022-10-26T20:53:18.991Z,10.46
2022-10-26T20:55:57.331Z,10.49
2022-10-26T20:58:53.535Z,10.46
2022-10-26T21:01:26.027Z,10.39
2022-10-26T21:03:53.874Z,10.30
2022-10-26T21:06:21.256Z,10.23
2022-10-26T21:08:49.402Z,10.17
2022-10-26T21:11:17.295Z,10.16
2022-10-26T21:13:45.037Z,10.18
2022-10-26T21:16:13.904Z,10.16
2022-10-26T21:18:41.078Z,10.12
2022-10-26T21:21:08.327Z,10.06
2022-10-26T21:23:39.385Z,10.00
2022-10-26T21:26:07.233Z,9.95
2022-10-26T21:28:38.688Z,9.94
2022-10-26T21:31:07.163Z,9.95
2022-10-26T21:33:34.424Z,9.94
2022-10-26T21:36:01.876Z,9.90
2022-10-26T21:38:29.283Z,9.83
2022-10-26T21:41:10.336Z,9.76
2022-10-26T21:43:38.373Z,9.69
2022-10-26T21:46:05.522Z,9.68
2022-10-26T21:48:33.183Z,9.70
2022-10-26T21:51:07.306Z,9.67
2022-10-26T21:53:34.448Z,9.60
2022-10-26T21:56:02.034Z,9.53
2022-10-26T21:58:29.979Z,9.46
2022-10-26T22:01:17.496Z,9.39
2022-10-26T22:03:44.758Z,9.38
2022-10-26T22:06:13.481Z,9.41
2022-10-26T22:08:40.972Z,9.40
2022-10-26T22:11:15.362Z,9.38
2022-10-26T22:13:44.003Z,9.33
2022-10-26T22:16:13.121Z,9.27
2022-10-26T22:18:42.276Z,9.20
2022-10-26T22:21:09.304Z,9.22
2022-10-26T22:23:37.552Z,9.28
2022-10-26T22:26:15.006Z,9.30
2022-10-26T22:28:43.065Z,9.28
2022-10-26T22:31:12.955Z,9.26
2022-10-26T22:33:40.372Z,9.22
2022-10-26T22:36:14.680Z,9.19
2022-10-26T22:38:41.910Z,9.25
2022-10-26T22:41:09.009Z,9.32
2022-10-26T22:43:35.983Z,9.34
2022-10-26T22:46:07.593Z,9.32
2022-10-26T22:48:34.692Z,9.30
2022-10-26T22:51:08.568Z,9.28
2022-10-26T22:53:35.514Z,9.25
2022-10-26T22:56:02.715Z,9.27
2022-10-26T22:58:29.749Z,9.30
2022-10-26T23:01:07.842Z,9.30
2022-10-26T23:03:34.953Z,9.28
2022-10-26T23:06:02.121Z,9.25
2022-10-26T23:08:29.113Z,9.21
2022-10-26T23:11:04.044Z,9.16
2022-10-26T23:13:31.192Z,9.18
2022-10-26T23:16:07.523Z,9.23
2022-10-26T23:18:34.848Z,9.24
2022-10-26T23:21:02.095Z,9.23
2022-10-26T23:23:29.001Z,9.19
2022-10-26T23:26:03.033Z,9.15
2022-10-26T23:28:30.094Z,9.10
2022-10-26T23:30:57.058Z,9.11
2022-10-26T23:33:23.939Z,9.15
2022-10-26T23:35:54.001Z,9.16
2022-10-26T23:38:20.976Z,9.14
2022-10-26T23:40:57.972Z,9.10
2022-10-26T23:43:25.487Z,9.06
2022-10-26T23:45:52.724Z,9.02
2022-10-26T23:48:19.944Z,9.05
2022-10-26T23:50:47.550Z,9.09
2022-10-26T23:53:15.208Z,9.10
